LIPQ/TRS METAR and TAF weather

Enter ICAO airport designator
Station Type Date Time Source
LIPQ METAR 2021/07/27 22:20 UTC NOAA

LIPQ 272220Z AUTO 11004KT 9999 FEW100/// 21/17 Q1015


Station Type Date Time Source
LIPQ Decoded METAR 2021/07/27 22:20 UTC NOAA

Ronchi Dei Legionari, Italy (LIPQ) 45-49N 013-29E 12M
Jul 27, 2021 - 06:20 PM EDT / 2021.07.27 2220 UTC
Wind: from the ESE (110 degrees) at 5 MPH (4 KT):0
Visibility: greater than 7 mile(s):0
Sky conditions: mostly clear
Temperature: 69 F (21 C)
Dew Point: 62 F (17 C)
Relative Humidity: 77%
Pressure (altimeter): 29.97 in. Hg (1015 hPa)
ob: LIPQ 272220Z AUTO 11004KT 9999 FEW100/// 21/17 Q1015
cycle: 22

Station Type Date Time Source
LIPQ TAF 2021/07/27 18:25 UTC NOAA

TAF LIPQ 271700Z 2718/2818 22010KT 9999 SCT060
TEMPO 2718/2724 4000 TSRA
BECMG 2719/2721 08006KT
BECMG 2810/2812 20010KT
TEMPO 2811/2815 SHRA
BECMG 2816/2818 VRB05KT

Example: see airport list